sensor_id;sensor_type;location;lat;lon;timestamp;P1;durP1;ratioP1;P2;durP2;ratioP2
45368;SDS011;51342;55.250;37.668;2022-12-07T00:04:04;5.87;;;2.80;;
45368;SDS011;51342;55.250;37.668;2022-12-07T00:06:38;7.97;;;2.63;;
45368;SDS011;51342;55.250;37.668;2022-12-07T00:09:12;7.33;;;3.20;;
45368;SDS011;51342;55.250;37.668;2022-12-07T00:11:47;7.33;;;3.40;;
45368;SDS011;51342;55.250;37.668;2022-12-07T00:14:21;8.13;;;2.77;;
45368;SDS011;51342;55.250;37.668;2022-12-07T00:16:52;8.33;;;3.30;;
45368;SDS011;51342;55.250;37.668;2022-12-07T00:19:24;9.23;;;3.00;;
45368;SDS011;51342;55.250;37.668;2022-12-07T00:21:55;7.13;;;2.67;;
45368;SDS011;51342;55.250;37.668;2022-12-07T00:24:27;5.40;;;2.93;;
45368;SDS011;51342;55.250;37.668;2022-12-07T00:26:58;5.83;;;2.77;;
45368;SDS011;51342;55.250;37.668;2022-12-07T00:29:29;8.37;;;2.83;;
45368;SDS011;51342;55.250;37.668;2022-12-07T00:32:01;9.57;;;2.93;;
45368;SDS011;51342;55.250;37.668;2022-12-07T00:34:32;8.17;;;3.23;;
45368;SDS011;51342;55.250;37.668;2022-12-07T00:37:04;5.27;;;2.50;;
45368;SDS011;51342;55.250;37.668;2022-12-07T00:39:35;7.30;;;3.00;;
45368;SDS011;51342;55.250;37.668;2022-12-07T00:42:06;5.83;;;2.70;;
45368;SDS011;51342;55.250;37.668;2022-12-07T00:44:38;7.93;;;2.57;;
45368;SDS011;51342;55.250;37.668;2022-12-07T00:47:09;5.83;;;2.47;;
45368;SDS011;51342;55.250;37.668;2022-12-07T00:49:41;6.13;;;2.57;;
45368;SDS011;51342;55.250;37.668;2022-12-07T00:52:12;6.00;;;2.97;;
45368;SDS011;51342;55.250;37.668;2022-12-07T00:54:43;8.37;;;2.80;;
45368;SDS011;51342;55.250;37.668;2022-12-07T00:57:15;7.73;;;2.60;;
45368;SDS011;51342;55.250;37.668;2022-12-07T00:59:46;5.33;;;2.30;;
45368;SDS011;51342;55.250;37.668;2022-12-07T01:02:19;5.83;;;2.97;;
45368;SDS011;51342;55.250;37.668;2022-12-07T01:04:50;7.87;;;3.20;;
45368;SDS011;51342;55.250;37.668;2022-12-07T01:07:22;8.03;;;3.53;;
45368;SDS011;51342;55.250;37.668;2022-12-07T01:09:53;5.50;;;2.37;;
45368;SDS011;51342;55.250;37.668;2022-12-07T01:12:24;5.00;;;2.27;;
45368;SDS011;51342;55.250;37.668;2022-12-07T01:14:56;5.87;;;2.53;;
45368;SDS011;51342;55.250;37.668;2022-12-07T01:17:27;8.70;;;3.03;;
45368;SDS011;51342;55.250;37.668;2022-12-07T01:19:59;5.50;;;2.57;;
45368;SDS011;51342;55.250;37.668;2022-12-07T01:22:31;6.77;;;2.43;;
45368;SDS011;51342;55.250;37.668;2022-12-07T01:25:07;5.50;;;2.43;;
45368;SDS011;51342;55.250;37.668;2022-12-07T01:27:39;5.00;;;2.60;;
45368;SDS011;51342;55.250;37.668;2022-12-07T01:30:13;4.93;;;2.53;;
45368;SDS011;51342;55.250;37.668;2022-12-07T01:32:44;5.20;;;2.30;;
45368;SDS011;51342;55.250;37.668;2022-12-07T01:35:16;5.70;;;2.57;;
45368;SDS011;51342;55.250;37.668;2022-12-07T01:37:47;5.87;;;2.30;;
45368;SDS011;51342;55.250;37.668;2022-12-07T01:40:19;6.70;;;2.67;;
45368;SDS011;51342;55.250;37.668;2022-12-07T01:42:50;6.33;;;2.57;;
45368;SDS011;51342;55.250;37.668;2022-12-07T01:48:10;7.10;;;2.73;;
45368;SDS011;51342;55.250;37.668;2022-12-07T01:50:46;6.63;;;2.60;;
45368;SDS011;51342;55.250;37.668;2022-12-07T01:53:20;6.30;;;2.83;;
45368;SDS011;51342;55.250;37.668;2022-12-07T01:55:52;5.40;;;2.50;;
45368;SDS011;51342;55.250;37.668;2022-12-07T01:58:25;6.67;;;2.60;;
45368;SDS011;51342;55.250;37.668;2022-12-07T02:00:57;5.50;;;2.77;;
45368;SDS011;51342;55.250;37.668;2022-12-07T02:03:30;6.13;;;2.27;;
45368;SDS011;51342;55.250;37.668;2022-12-07T02:06:07;6.83;;;2.70;;
45368;SDS011;51342;55.250;37.668;2022-12-07T02:08:41;5.63;;;2.90;;
45368;SDS011;51342;55.250;37.668;2022-12-07T02:11:13;5.90;;;2.83;;
45368;SDS011;51342;55.250;37.668;2022-12-07T02:13:45;5.07;;;2.50;;
45368;SDS011;51342;55.250;37.668;2022-12-07T02:16:21;5.70;;;2.60;;
45368;SDS011;51342;55.250;37.668;2022-12-07T02:22:26;6.23;;;2.50;;
45368;SDS011;51342;55.250;37.668;2022-12-07T02:28:07;9.03;;;2.70;;
45368;SDS011;51342;55.250;37.668;2022-12-07T02:30:49;8.90;;;2.80;;
45368;SDS011;51342;55.250;37.668;2022-12-07T02:33:28;6.47;;;2.70;;
45368;SDS011;51342;55.250;37.668;2022-12-07T02:36:08;4.77;;;2.57;;
45368;SDS011;51342;55.250;37.668;2022-12-07T02:41:43;5.37;;;2.57;;
45368;SDS011;51342;55.250;37.668;2022-12-07T02:44:20;7.97;;;2.77;;
45368;SDS011;51342;55.250;37.668;2022-12-07T02:46:55;7.53;;;2.63;;
45368;SDS011;51342;55.250;37.668;2022-12-07T02:49:30;6.30;;;2.47;;
45368;SDS011;51342;55.250;37.668;2022-12-07T02:52:03;6.63;;;2.60;;
45368;SDS011;51342;55.250;37.668;2022-12-07T02:54:34;7.13;;;2.60;;
45368;SDS011;51342;55.250;37.668;2022-12-07T03:11:16;6.03;;;2.40;;
45368;SDS011;51342;55.250;37.668;2022-12-07T03:14:18;6.03;;;2.27;;
45368;SDS011;51342;55.250;37.668;2022-12-07T03:19:32;6.32;;;2.35;;
45368;SDS011;51342;55.250;37.668;2022-12-07T03:22:09;6.67;;;2.73;;
45368;SDS011;51342;55.250;37.668;2022-12-07T03:24:45;5.07;;;2.35;;
45368;SDS011;51342;55.250;37.668;2022-12-07T03:27:24;6.43;;;2.40;;
45368;SDS011;51342;55.250;37.668;2022-12-07T03:29:59;5.30;;;2.50;;
45368;SDS011;51342;55.250;37.668;2022-12-07T03:32:39;4.63;;;2.30;;
45368;SDS011;51342;55.250;37.668;2022-12-07T03:35:21;5.60;;;2.50;;
45368;SDS011;51342;55.250;37.668;2022-12-07T03:40:48;7.00;;;2.75;;
45368;SDS011;51342;55.250;37.668;2022-12-07T03:43:28;5.90;;;2.50;;
45368;SDS011;51342;55.250;37.668;2022-12-07T03:48:59;5.30;;;2.40;;
45368;SDS011;51342;55.250;37.668;2022-12-07T03:51:45;7.13;;;2.63;;
45368;SDS011;51342;55.250;37.668;2022-12-07T03:54:19;5.57;;;2.70;;
45368;SDS011;51342;55.250;37.668;2022-12-07T03:56:55;4.78;;;2.47;;
45368;SDS011;51342;55.250;37.668;2022-12-07T03:59:28;5.73;;;2.70;;
45368;SDS011;51342;55.250;37.668;2022-12-07T04:02:02;5.17;;;2.47;;
45368;SDS011;51342;55.250;37.668;2022-12-07T04:04:35;7.70;;;2.90;;
45368;SDS011;51342;55.250;37.668;2022-12-07T04:07:06;5.60;;;2.63;;
45368;SDS011;51342;55.250;37.668;2022-12-07T04:09:38;5.30;;;2.33;;
45368;SDS011;51342;55.250;37.668;2022-12-07T04:12:09;6.60;;;3.03;;
45368;SDS011;51342;55.250;37.668;2022-12-07T04:14:40;5.93;;;2.87;;
45368;SDS011;51342;55.250;37.668;2022-12-07T04:17:12;7.77;;;2.73;;
45368;SDS011;51342;55.250;37.668;2022-12-07T04:19:43;6.00;;;2.20;;
45368;SDS011;51342;55.250;37.668;2022-12-07T04:22:15;6.30;;;2.87;;
45368;SDS011;51342;55.250;37.668;2022-12-07T04:24:46;5.47;;;2.83;;
45368;SDS011;51342;55.250;37.668;2022-12-07T04:27:17;5.40;;;2.87;;
45368;SDS011;51342;55.250;37.668;2022-12-07T04:29:49;5.63;;;2.93;;
45368;SDS011;51342;55.250;37.668;2022-12-07T04:32:20;5.83;;;2.53;;
45368;SDS011;51342;55.250;37.668;2022-12-07T04:34:52;5.43;;;2.83;;
45368;SDS011;51342;55.250;37.668;2022-12-07T04:37:24;7.07;;;3.47;;
45368;SDS011;51342;55.250;37.668;2022-12-07T04:39:55;5.13;;;2.73;;
45368;SDS011;51342;55.250;37.668;2022-12-07T04:42:26;6.30;;;2.90;;
45368;SDS011;51342;55.250;37.668;2022-12-07T04:44:58;8.10;;;2.90;;
45368;SDS011;51342;55.250;37.668;2022-12-07T04:47:29;5.73;;;2.83;;
45368;SDS011;51342;55.250;37.668;2022-12-07T04:50:01;8.20;;;3.03;;
45368;SDS011;51342;55.250;37.668;2022-12-07T04:52:32;7.93;;;3.03;;
45368;SDS011;51342;55.250;37.668;2022-12-07T04:55:04;9.10;;;3.43;;
45368;SDS011;51342;55.250;37.668;2022-12-07T04:57:35;5.73;;;3.10;;
45368;SDS011;51342;55.250;37.668;2022-12-07T05:00:07;6.17;;;3.00;;
45368;SDS011;51342;55.250;37.668;2022-12-07T05:02:39;8.43;;;2.90;;
45368;SDS011;51342;55.250;37.668;2022-12-07T05:05:10;7.13;;;3.13;;
45368;SDS011;51342;55.250;37.668;2022-12-07T05:07:41;5.13;;;2.57;;
45368;SDS011;51342;55.250;37.668;2022-12-07T05:10:13;8.03;;;3.33;;
45368;SDS011;51342;55.250;37.668;2022-12-07T05:12:44;6.07;;;2.80;;
45368;SDS011;51342;55.250;37.668;2022-12-07T05:15:16;6.70;;;3.23;;
45368;SDS011;51342;55.250;37.668;2022-12-07T05:17:48;6.37;;;3.03;;
45368;SDS011;51342;55.250;37.668;2022-12-07T05:20:19;6.00;;;3.07;;
45368;SDS011;51342;55.250;37.668;2022-12-07T05:22:50;6.83;;;3.47;;
45368;SDS011;51342;55.250;37.668;2022-12-07T05:25:22;8.77;;;3.70;;
45368;SDS011;51342;55.250;37.668;2022-12-07T05:27:54;7.93;;;3.77;;
45368;SDS011;51342;55.250;37.668;2022-12-07T05:30:26;9.70;;;3.73;;
45368;SDS011;51342;55.250;37.668;2022-12-07T05:32:58;10.73;;;3.63;;
45368;SDS011;51342;55.250;37.668;2022-12-07T05:35:29;7.03;;;3.37;;
45368;SDS011;51342;55.250;37.668;2022-12-07T05:38:01;11.03;;;3.97;;
45368;SDS011;51342;55.250;37.668;2022-12-07T05:40:32;8.73;;;3.63;;
45368;SDS011;51342;55.250;37.668;2022-12-07T05:43:03;8.47;;;3.83;;
45368;SDS011;51342;55.250;37.668;2022-12-07T05:45:35;8.90;;;3.60;;
45368;SDS011;51342;55.250;37.668;2022-12-07T05:48:06;11.57;;;3.80;;
45368;SDS011;51342;55.250;37.668;2022-12-07T05:50:38;9.33;;;3.97;;
45368;SDS011;51342;55.250;37.668;2022-12-07T05:53:09;10.20;;;3.60;;
45368;SDS011;51342;55.250;37.668;2022-12-07T05:55:40;7.27;;;3.80;;
45368;SDS011;51342;55.250;37.668;2022-12-07T05:58:12;8.20;;;3.70;;
45368;SDS011;51342;55.250;37.668;2022-12-07T06:01:01;11.73;;;4.57;;
45368;SDS011;51342;55.250;37.668;2022-12-07T06:03:33;10.27;;;4.00;;
45368;SDS011;51342;55.250;37.668;2022-12-07T06:06:04;9.63;;;4.40;;
45368;SDS011;51342;55.250;37.668;2022-12-07T06:08:36;10.63;;;4.03;;
45368;SDS011;51342;55.250;37.668;2022-12-07T06:11:07;11.10;;;4.60;;
45368;SDS011;51342;55.250;37.668;2022-12-07T06:13:57;9.10;;;3.70;;
45368;SDS011;51342;55.250;37.668;2022-12-07T06:16:29;8.90;;;4.33;;
45368;SDS011;51342;55.250;37.668;2022-12-07T06:19:00;10.43;;;4.47;;
45368;SDS011;51342;55.250;37.668;2022-12-07T06:21:31;10.77;;;4.47;;
45368;SDS011;51342;55.250;37.668;2022-12-07T06:24:03;8.37;;;4.27;;
45368;SDS011;51342;55.250;37.668;2022-12-07T06:26:35;11.67;;;5.33;;
45368;SDS011;51342;55.250;37.668;2022-12-07T06:29:06;10.10;;;4.67;;
45368;SDS011;51342;55.250;37.668;2022-12-07T06:31:37;10.27;;;3.87;;
45368;SDS011;51342;55.250;37.668;2022-12-07T06:34:10;11.33;;;4.37;;
45368;SDS011;51342;55.250;37.668;2022-12-07T06:36:46;11.90;;;5.03;;
45368;SDS011;51342;55.250;37.668;2022-12-07T06:39:23;11.83;;;5.07;;
45368;SDS011;51342;55.250;37.668;2022-12-07T06:41:56;11.90;;;4.53;;
45368;SDS011;51342;55.250;37.668;2022-12-07T06:44:28;10.63;;;4.00;;
45368;SDS011;51342;55.250;37.668;2022-12-07T06:46:59;14.07;;;5.30;;
45368;SDS011;51342;55.250;37.668;2022-12-07T06:49:30;9.93;;;4.30;;
45368;SDS011;51342;55.250;37.668;2022-12-07T06:52:02;9.73;;;4.10;;
45368;SDS011;51342;55.250;37.668;2022-12-07T06:54:35;10.43;;;4.33;;
45368;SDS011;51342;55.250;37.668;2022-12-07T06:57:07;11.50;;;4.33;;
45368;SDS011;51342;55.250;37.668;2022-12-07T06:59:38;12.30;;;4.93;;
45368;SDS011;51342;55.250;37.668;2022-12-07T07:02:09;11.60;;;4.77;;
45368;SDS011;51342;55.250;37.668;2022-12-07T07:04:41;11.33;;;5.40;;
45368;SDS011;51342;55.250;37.668;2022-12-07T07:07:12;9.63;;;4.03;;
45368;SDS011;51342;55.250;37.668;2022-12-07T07:09:43;12.37;;;5.50;;
45368;SDS011;51342;55.250;37.668;2022-12-07T07:12:15;11.83;;;5.23;;
45368;SDS011;51342;55.250;37.668;2022-12-07T07:14:46;9.83;;;4.67;;
45368;SDS011;51342;55.250;37.668;2022-12-07T07:17:18;10.47;;;3.87;;
45368;SDS011;51342;55.250;37.668;2022-12-07T07:19:49;14.47;;;4.63;;
45368;SDS011;51342;55.250;37.668;2022-12-07T07:22:20;10.97;;;4.60;;
45368;SDS011;51342;55.250;37.668;2022-12-07T07:24:52;11.30;;;4.23;;
45368;SDS011;51342;55.250;37.668;2022-12-07T07:27:23;11.73;;;4.23;;
45368;SDS011;51342;55.250;37.668;2022-12-07T07:29:54;13.20;;;4.47;;
45368;SDS011;51342;55.250;37.668;2022-12-07T07:32:26;11.60;;;4.40;;
45368;SDS011;51342;55.250;37.668;2022-12-07T07:34:57;9.97;;;4.30;;
45368;SDS011;51342;55.250;37.668;2022-12-07T07:37:28;9.80;;;4.27;;
45368;SDS011;51342;55.250;37.668;2022-12-07T07:40:00;10.13;;;4.77;;
45368;SDS011;51342;55.250;37.668;2022-12-07T07:42:31;12.13;;;4.30;;
45368;SDS011;51342;55.250;37.668;2022-12-07T07:45:03;10.97;;;4.50;;
45368;SDS011;51342;55.250;37.668;2022-12-07T07:47:35;9.83;;;4.53;;
45368;SDS011;51342;55.250;37.668;2022-12-07T07:50:06;12.00;;;4.57;;
45368;SDS011;51342;55.250;37.668;2022-12-07T07:52:38;11.97;;;5.00;;
45368;SDS011;51342;55.250;37.668;2022-12-07T07:55:10;10.97;;;4.33;;
45368;SDS011;51342;55.250;37.668;2022-12-07T07:57:42;8.37;;;4.97;;
45368;SDS011;51342;55.250;37.668;2022-12-07T08:00:14;9.97;;;4.10;;
45368;SDS011;51342;55.250;37.668;2022-12-07T08:02:46;9.00;;;4.23;;
45368;SDS011;51342;55.250;37.668;2022-12-07T08:05:17;11.03;;;3.80;;
45368;SDS011;51342;55.250;37.668;2022-12-07T08:07:49;9.60;;;4.33;;
45368;SDS011;51342;55.250;37.668;2022-12-07T08:10:20;8.73;;;4.23;;
45368;SDS011;51342;55.250;37.668;2022-12-07T08:12:51;10.53;;;4.13;;
45368;SDS011;51342;55.250;37.668;2022-12-07T08:15:45;9.13;;;4.07;;
45368;SDS011;51342;55.250;37.668;2022-12-07T08:18:18;8.88;;;3.78;;
45368;SDS011;51342;55.250;37.668;2022-12-07T08:20:49;9.37;;;3.93;;
45368;SDS011;51342;55.250;37.668;2022-12-07T08:23:21;8.00;;;3.77;;
45368;SDS011;51342;55.250;37.668;2022-12-07T08:25:52;10.07;;;4.30;;
45368;SDS011;51342;55.250;37.668;2022-12-07T08:28:23;9.03;;;3.80;;
45368;SDS011;51342;55.250;37.668;2022-12-07T08:30:59;8.47;;;4.00;;
45368;SDS011;51342;55.250;37.668;2022-12-07T08:33:32;7.87;;;3.67;;
45368;SDS011;51342;55.250;37.668;2022-12-07T08:36:05;12.10;;;4.33;;
45368;SDS011;51342;55.250;37.668;2022-12-07T08:38:39;9.23;;;3.53;;
45368;SDS011;51342;55.250;37.668;2022-12-07T08:41:11;10.53;;;4.43;;
45368;SDS011;51342;55.250;37.668;2022-12-07T08:43:43;6.50;;;3.30;;
45368;SDS011;51342;55.250;37.668;2022-12-07T08:46:19;7.53;;;3.90;;
45368;SDS011;51342;55.250;37.668;2022-12-07T08:48:57;9.70;;;4.07;;
45368;SDS011;51342;55.250;37.668;2022-12-07T08:51:34;7.27;;;4.20;;
45368;SDS011;51342;55.250;37.668;2022-12-07T08:54:07;8.03;;;3.97;;
45368;SDS011;51342;55.250;37.668;2022-12-07T08:56:41;7.40;;;3.73;;
45368;SDS011;51342;55.250;37.668;2022-12-07T08:59:14;9.83;;;4.20;;
45368;SDS011;51342;55.250;37.668;2022-12-07T09:01:48;6.83;;;3.90;;
45368;SDS011;51342;55.250;37.668;2022-12-07T09:04:19;9.33;;;3.60;;
45368;SDS011;51342;55.250;37.668;2022-12-07T09:06:51;8.80;;;3.77;;
45368;SDS011;51342;55.250;37.668;2022-12-07T09:09:22;10.77;;;4.50;;
45368;SDS011;51342;55.250;37.668;2022-12-07T09:11:54;8.10;;;3.80;;
45368;SDS011;51342;55.250;37.668;2022-12-07T09:14:25;10.47;;;4.10;;
45368;SDS011;51342;55.250;37.668;2022-12-07T09:17:04;8.43;;;4.07;;
45368;SDS011;51342;55.250;37.668;2022-12-07T09:19:38;8.87;;;4.40;;
45368;SDS011;51342;55.250;37.668;2022-12-07T09:22:10;8.97;;;3.40;;
45368;SDS011;51342;55.250;37.668;2022-12-07T09:24:41;10.73;;;4.40;;
45368;SDS011;51342;55.250;37.668;2022-12-07T09:27:14;10.90;;;4.53;;
45368;SDS011;51342;55.250;37.668;2022-12-07T09:29:46;7.33;;;3.90;;
45368;SDS011;51342;55.250;37.668;2022-12-07T09:32:17;9.77;;;4.60;;
45368;SDS011;51342;55.250;37.668;2022-12-07T09:34:49;8.87;;;3.53;;
45368;SDS011;51342;55.250;37.668;2022-12-07T09:37:20;8.70;;;4.27;;
45368;SDS011;51342;55.250;37.668;2022-12-07T09:39:52;9.13;;;4.57;;
45368;SDS011;51342;55.250;37.668;2022-12-07T09:42:32;9.43;;;4.00;;
45368;SDS011;51342;55.250;37.668;2022-12-07T09:45:15;9.63;;;4.17;;
45368;SDS011;51342;55.250;37.668;2022-12-07T09:48:18;9.83;;;4.67;;
45368;SDS011;51342;55.250;37.668;2022-12-07T09:50:52;6.40;;;2.80;;
45368;SDS011;51342;55.250;37.668;2022-12-07T09:53:30;8.47;;;4.63;;
45368;SDS011;51342;55.250;37.668;2022-12-07T09:56:04;9.20;;;4.23;;
45368;SDS011;51342;55.250;37.668;2022-12-07T09:58:36;9.23;;;3.97;;
45368;SDS011;51342;55.250;37.668;2022-12-07T10:03:51;10.20;;;4.67;;
45368;SDS011;51342;55.250;37.668;2022-12-07T10:06:29;10.23;;;4.27;;
45368;SDS011;51342;55.250;37.668;2022-12-07T10:09:01;8.93;;;4.63;;
45368;SDS011;51342;55.250;37.668;2022-12-07T10:11:33;9.17;;;3.80;;
45368;SDS011;51342;55.250;37.668;2022-12-07T10:14:12;9.43;;;4.40;;
45368;SDS011;51342;55.250;37.668;2022-12-07T10:16:44;7.30;;;3.80;;
45368;SDS011;51342;55.250;37.668;2022-12-07T10:22:09;7.90;;;4.22;;
45368;SDS011;51342;55.250;37.668;2022-12-07T10:24:42;10.53;;;3.47;;
45368;SDS011;51342;55.250;37.668;2022-12-07T10:27:29;10.57;;;4.00;;
45368;SDS011;51342;55.250;37.668;2022-12-07T10:30:02;8.63;;;4.30;;
45368;SDS011;51342;55.250;37.668;2022-12-07T10:32:40;10.10;;;4.43;;
45368;SDS011;51342;55.250;37.668;2022-12-07T10:35:19;10.07;;;5.20;;
45368;SDS011;51342;55.250;37.668;2022-12-07T10:37:53;11.20;;;4.23;;
45368;SDS011;51342;55.250;37.668;2022-12-07T10:57:10;11.03;;;4.40;;
45368;SDS011;51342;55.250;37.668;2022-12-07T11:14:19;9.47;;;5.10;;
45368;SDS011;51342;55.250;37.668;2022-12-07T11:16:57;9.67;;;4.70;;
45368;SDS011;51342;55.250;37.668;2022-12-07T11:28:39;11.73;;;5.40;;
45368;SDS011;51342;55.250;37.668;2022-12-07T11:31:15;9.63;;;5.30;;
45368;SDS011;51342;55.250;37.668;2022-12-07T11:37:02;10.70;;;4.95;;
45368;SDS011;51342;55.250;37.668;2022-12-07T11:39:54;10.77;;;5.27;;
45368;SDS011;51342;55.250;37.668;2022-12-07T11:42:33;9.85;;;5.47;;
45368;SDS011;51342;55.250;37.668;2022-12-07T11:45:13;11.37;;;4.87;;
45368;SDS011;51342;55.250;37.668;2022-12-07T11:47:58;11.90;;;5.23;;
45368;SDS011;51342;55.250;37.668;2022-12-07T11:56:13;13.60;;;6.07;;
45368;SDS011;51342;55.250;37.668;2022-12-07T12:01:24;12.17;;;5.23;;
45368;SDS011;51342;55.250;37.668;2022-12-07T12:12:20;12.63;;;5.73;;
45368;SDS011;51342;55.250;37.668;2022-12-07T12:15:04;14.57;;;5.67;;
45368;SDS011;51342;55.250;37.668;2022-12-07T12:25:57;13.60;;;6.07;;
45368;SDS011;51342;55.250;37.668;2022-12-07T12:28:41;14.03;;;7.20;;
45368;SDS011;51342;55.250;37.668;2022-12-07T12:33:53;14.40;;;6.67;;
45368;SDS011;51342;55.250;37.668;2022-12-07T12:39:18;13.30;;;5.87;;
45368;SDS011;51342;55.250;37.668;2022-12-07T12:41:52;12.87;;;5.70;;
45368;SDS011;51342;55.250;37.668;2022-12-07T12:47:04;12.67;;;5.83;;
45368;SDS011;51342;55.250;37.668;2022-12-07T12:50:11;11.43;;;5.90;;
45368;SDS011;51342;55.250;37.668;2022-12-07T12:55:16;13.67;;;6.57;;
45368;SDS011;51342;55.250;37.668;2022-12-07T13:01:31;14.33;;;6.47;;
45368;SDS011;51342;55.250;37.668;2022-12-07T13:04:12;14.40;;;5.77;;
45368;SDS011;51342;55.250;37.668;2022-12-07T13:06:53;15.30;;;6.63;;
45368;SDS011;51342;55.250;37.668;2022-12-07T13:09:26;13.30;;;6.60;;
45368;SDS011;51342;55.250;37.668;2022-12-07T13:12:05;15.70;;;6.40;;
45368;SDS011;51342;55.250;37.668;2022-12-07T13:14:54;11.50;;;6.00;;
45368;SDS011;51342;55.250;37.668;2022-12-07T13:20:02;14.93;;;5.63;;
45368;SDS011;51342;55.250;37.668;2022-12-07T13:22:39;15.43;;;6.20;;
45368;SDS011;51342;55.250;37.668;2022-12-07T13:27:51;12.03;;;6.67;;
45368;SDS011;51342;55.250;37.668;2022-12-07T13:30:28;14.30;;;6.03;;
45368;SDS011;51342;55.250;37.668;2022-12-07T13:33:03;14.83;;;5.70;;
45368;SDS011;51342;55.250;37.668;2022-12-07T13:35:35;12.60;;;5.93;;
45368;SDS011;51342;55.250;37.668;2022-12-07T13:41:02;11.80;;;5.75;;
45368;SDS011;51342;55.250;37.668;2022-12-07T13:51:48;11.87;;;5.43;;
45368;SDS011;51342;55.250;37.668;2022-12-07T13:54:20;11.73;;;5.37;;
45368;SDS011;51342;55.250;37.668;2022-12-07T13:56:52;11.67;;;4.80;;
45368;SDS011;51342;55.250;37.668;2022-12-07T13:59:24;12.70;;;5.37;;
45368;SDS011;51342;55.250;37.668;2022-12-07T14:01:57;13.90;;;6.77;;
45368;SDS011;51342;55.250;37.668;2022-12-07T14:04:32;11.23;;;5.43;;
45368;SDS011;51342;55.250;37.668;2022-12-07T14:15:58;15.67;;;5.63;;
45368;SDS011;51342;55.250;37.668;2022-12-07T14:18:38;13.80;;;5.27;;
45368;SDS011;51342;55.250;37.668;2022-12-07T14:21:15;11.93;;;5.50;;
45368;SDS011;51342;55.250;37.668;2022-12-07T14:26:52;12.13;;;5.27;;
45368;SDS011;51342;55.250;37.668;2022-12-07T14:37:39;11.17;;;5.17;;
45368;SDS011;51342;55.250;37.668;2022-12-07T14:40:15;14.43;;;5.70;;
45368;SDS011;51342;55.250;37.668;2022-12-07T14:42:51;13.03;;;5.00;;
45368;SDS011;51342;55.250;37.668;2022-12-07T14:45:26;13.37;;;5.70;;
45368;SDS011;51342;55.250;37.668;2022-12-07T14:47:58;13.67;;;5.70;;
45368;SDS011;51342;55.250;37.668;2022-12-07T14:50:29;14.83;;;5.83;;
45368;SDS011;51342;55.250;37.668;2022-12-07T14:53:03;11.53;;;5.03;;
45368;SDS011;51342;55.250;37.668;2022-12-07T14:55:47;11.40;;;5.77;;
45368;SDS011;51342;55.250;37.668;2022-12-07T14:58:18;12.80;;;5.80;;
45368;SDS011;51342;55.250;37.668;2022-12-07T15:00:49;13.37;;;5.43;;
45368;SDS011;51342;55.250;37.668;2022-12-07T15:03:21;15.80;;;5.87;;
45368;SDS011;51342;55.250;37.668;2022-12-07T15:05:52;11.00;;;5.40;;
45368;SDS011;51342;55.250;37.668;2022-12-07T15:08:23;15.17;;;5.73;;
45368;SDS011;51342;55.250;37.668;2022-12-07T15:10:55;12.33;;;5.57;;
45368;SDS011;51342;55.250;37.668;2022-12-07T15:13:26;11.27;;;5.27;;
45368;SDS011;51342;55.250;37.668;2022-12-07T15:16:18;24.83;;;10.00;;
45368;SDS011;51342;55.250;37.668;2022-12-07T15:18:51;19.33;;;8.93;;
45368;SDS011;51342;55.250;37.668;2022-12-07T15:21:22;15.13;;;7.30;;
45368;SDS011;51342;55.250;37.668;2022-12-07T15:23:54;13.17;;;6.73;;
45368;SDS011;51342;55.250;37.668;2022-12-07T15:26:25;61.03;;;29.40;;
45368;SDS011;51342;55.250;37.668;2022-12-07T15:28:57;25.63;;;13.27;;
45368;SDS011;51342;55.250;37.668;2022-12-07T15:31:28;40.43;;;20.57;;
45368;SDS011;51342;55.250;37.668;2022-12-07T15:33:59;16.97;;;10.90;;
45368;SDS011;51342;55.250;37.668;2022-12-07T15:36:31;19.90;;;7.27;;
45368;SDS011;51342;55.250;37.668;2022-12-07T15:39:04;13.23;;;5.70;;
45368;SDS011;51342;55.250;37.668;2022-12-07T15:41:36;26.33;;;15.27;;
45368;SDS011;51342;55.250;37.668;2022-12-07T15:44:11;34.97;;;18.07;;
45368;SDS011;51342;55.250;37.668;2022-12-07T15:47:03;24.23;;;13.90;;
45368;SDS011;51342;55.250;37.668;2022-12-07T15:49:35;15.93;;;8.50;;
45368;SDS011;51342;55.250;37.668;2022-12-07T15:52:06;11.23;;;6.17;;
45368;SDS011;51342;55.250;37.668;2022-12-07T15:54:37;11.80;;;5.80;;
45368;SDS011;51342;55.250;37.668;2022-12-07T15:57:09;13.67;;;6.20;;
45368;SDS011;51342;55.250;37.668;2022-12-07T15:59:40;11.83;;;5.27;;
45368;SDS011;51342;55.250;37.668;2022-12-07T16:02:12;14.73;;;6.00;;
45368;SDS011;51342;55.250;37.668;2022-12-07T16:04:43;14.67;;;6.27;;
45368;SDS011;51342;55.250;37.668;2022-12-07T16:07:16;11.63;;;5.17;;
45368;SDS011;51342;55.250;37.668;2022-12-07T16:09:48;18.23;;;6.53;;
45368;SDS011;51342;55.250;37.668;2022-12-07T16:12:22;13.40;;;5.80;;
45368;SDS011;51342;55.250;37.668;2022-12-07T16:14:56;11.87;;;5.47;;
45368;SDS011;51342;55.250;37.668;2022-12-07T16:17:27;11.83;;;5.63;;
45368;SDS011;51342;55.250;37.668;2022-12-07T16:19:58;14.90;;;5.87;;
45368;SDS011;51342;55.250;37.668;2022-12-07T16:22:30;16.47;;;8.27;;
45368;SDS011;51342;55.250;37.668;2022-12-07T16:25:02;15.53;;;7.47;;
45368;SDS011;51342;55.250;37.668;2022-12-07T16:27:34;14.07;;;7.00;;
45368;SDS011;51342;55.250;37.668;2022-12-07T16:30:06;13.70;;;6.43;;
45368;SDS011;51342;55.250;37.668;2022-12-07T16:32:38;11.60;;;5.90;;
45368;SDS011;51342;55.250;37.668;2022-12-07T16:35:10;13.13;;;5.77;;
45368;SDS011;51342;55.250;37.668;2022-12-07T16:37:42;13.40;;;6.07;;
45368;SDS011;51342;55.250;37.668;2022-12-07T16:40:14;11.10;;;5.47;;
45368;SDS011;51342;55.250;37.668;2022-12-07T16:42:45;13.60;;;6.03;;
45368;SDS011;51342;55.250;37.668;2022-12-07T16:45:17;10.17;;;5.47;;
45368;SDS011;51342;55.250;37.668;2022-12-07T16:47:48;14.60;;;9.37;;
45368;SDS011;51342;55.250;37.668;2022-12-07T16:50:20;12.67;;;5.73;;
45368;SDS011;51342;55.250;37.668;2022-12-07T16:52:51;15.20;;;5.90;;
45368;SDS011;51342;55.250;37.668;2022-12-07T16:55:23;11.23;;;5.30;;
45368;SDS011;51342;55.250;37.668;2022-12-07T16:57:54;10.13;;;5.67;;
45368;SDS011;51342;55.250;37.668;2022-12-07T17:00:25;14.43;;;5.70;;
45368;SDS011;51342;55.250;37.668;2022-12-07T17:02:57;12.00;;;6.00;;
45368;SDS011;51342;55.250;37.668;2022-12-07T17:05:29;10.60;;;5.10;;
45368;SDS011;51342;55.250;37.668;2022-12-07T17:08:01;10.57;;;5.73;;
45368;SDS011;51342;55.250;37.668;2022-12-07T17:10:33;12.07;;;5.23;;
45368;SDS011;51342;55.250;37.668;2022-12-07T17:13:06;13.23;;;4.90;;
45368;SDS011;51342;55.250;37.668;2022-12-07T17:16:04;11.23;;;4.60;;
45368;SDS011;51342;55.250;37.668;2022-12-07T17:18:36;11.27;;;5.30;;
45368;SDS011;51342;55.250;37.668;2022-12-07T17:21:08;14.50;;;5.87;;
45368;SDS011;51342;55.250;37.668;2022-12-07T17:23:40;17.27;;;6.53;;
45368;SDS011;51342;55.250;37.668;2022-12-07T17:26:19;15.17;;;8.17;;
45368;SDS011;51342;55.250;37.668;2022-12-07T17:28:53;13.40;;;5.13;;
45368;SDS011;51342;55.250;37.668;2022-12-07T17:31:24;12.53;;;6.37;;
45368;SDS011;51342;55.250;37.668;2022-12-07T17:33:56;9.57;;;4.63;;
45368;SDS011;51342;55.250;37.668;2022-12-07T17:36:28;13.43;;;5.20;;
45368;SDS011;51342;55.250;37.668;2022-12-07T17:39:01;10.93;;;6.60;;
45368;SDS011;51342;55.250;37.668;2022-12-07T17:41:37;13.87;;;6.27;;
45368;SDS011;51342;55.250;37.668;2022-12-07T17:44:27;11.93;;;5.90;;
45368;SDS011;51342;55.250;37.668;2022-12-07T17:46:59;14.77;;;7.07;;
45368;SDS011;51342;55.250;37.668;2022-12-07T17:49:32;13.63;;;6.17;;